Wednesday, November 14, 2018, 7:25 AM GMT
Back to Local

CWRK, Bancroft Automatic Weather Reporting System

Location: , , Canada Lat: 45.067
Local Time: 7:25 AM GMT ( 7:25 GMT) Lon: -77.867
Time Zone: GMT Elev: 1085 ft

Show me the last for .
Show Decoded

2018-11-14 07:00 METAR CWRK 140700Z AUTO 30009KT M12/M17 RMK AO1 SOG 09 3028 SLP244 T11161169 =
2018-11-14 06:00 METAR CWRK 140600Z AUTO 30008KT M11/M16 RMK AO1 SOG 09 3025 PK WND 31023/0513
                 SLP232 T11061162 50002 =
2018-11-14 05:00 METAR CWRK 140500Z AUTO 29006KT M08/M14 RMK AO1 SOG 09 2016 PK WND 28021/0447
                 SLP217 T10781138 50002 =
2018-11-14 04:00 METAR CWRK 140400Z AUTO 31011G19KT M07/M10 RMK AO1 2PAST HR SOG 09 3010 PK WND
                 34019/0355 SLP212 P0001 T10671098 50002 =
2018-11-14 03:00 METAR CWRK 140300Z AUTO 25001KT M06/M09 RMK AO1 SOG 08 1009 SLP203 T10621088 =
2018-11-14 02:00 METAR CWRK 140200Z AUTO 00000KT M08/M10 RMK AO1 SOG 08 0010 SLP200 T10801097 =
2018-11-14 01:00 METAR CWRK 140100Z AUTO 00000KT M09/M10 RMK AO1 SOG 09 3014 SLP202 T10891102 =
2018-11-14 00:00 METAR CWRK 140000Z AUTO 00000KT M09/M10 RMK AO1 SOG 08 3009 SLP194 T10851095 =
2018-11-13 23:00 METAR CWRK 132300Z AUTO 32002KT M06/M10 RMK AO1 SOG 08 2006 SLP188 T10591099 =
2018-11-13 22:00 METAR CWRK 132200Z AUTO 32006KT M04/M10 RMK AO1 SOG 09 2006 SLP185 T10431095 =
2018-11-13 21:00 METAR CWRK 132100Z AUTO 30006KT M04/M11 RMK AO1 SOG 09 3002 SLP183 T10391109 =
2018-11-13 20:00 METAR CWRK 132000Z AUTO 32007KT M04/M11 RMK AO1 SOG 09 5002 SLP181 T10371110 =
2018-11-13 19:00 METAR CWRK 131900Z AUTO 34006KT M04/M09 RMK AO1 SOG 09 7006 SLP179 T10361090 =
2018-11-13 18:00 METAR CWRK 131800Z AUTO 32007KT M03/M08 RMK AO1 2PAST HR SOG 09 8004 SLP181
                 P0001 T10251080 50010 =
2018-11-13 17:00 METAR CWRK 131700Z AUTO 33007KT M03/M07 RMK AO1 SOG 08 7004 SLP182 T10321070
                 50008 =
2018-11-13 16:00 METAR CWRK 131600Z AUTO 33008G16KT M02/M05 RMK AO1 3PAST HR SOG 07 6003 SLP184
                 P0001 T10231047 50008 =
2018-11-13 15:00 METAR CWRK 131500Z AUTO 33005KT M02/M03 RMK AO1 2PAST HR SOG 08 0000 SLP184
                 P0001 T10171028 50005 =
2018-11-13 14:00 METAR CWRK 131400Z AUTO 36003KT M02/M03 RMK AO1 2PAST HR SOG 07 6004 SLP186
                 P0001 T10191028 50002 =
2018-11-13 13:00 METAR CWRK 131300Z AUTO 34004KT M01/M02 RMK AO1 SOG 07 5007 SLP186 T10131020 =
2018-11-13 12:00 METAR CWRK 131200Z AUTO 33003KT M01/M01 RMK AO1 2PAST HR SOG 07 7016 SLP183
                 P0001 T10081010 50024 =
2018-11-13 11:00 METAR CWRK 131100Z AUTO 00000KT M01/M01 RMK AO1 5PAST HR SOG 06 6015 SLP189
                 P0002 T10071007 50021 =
2018-11-13 10:00 METAR CWRK 131000Z AUTO 00000KT M01/M01 RMK AO1 2PAST HR SOG 06 6018 SLP193
                 P0001 T10061006 50016 =
2018-11-13 09:00 METAR CWRK 130900Z AUTO 00000KT 01/01 RMK AO1 6PAST HR SOG 04 7017 SLP199 P0002
                 T00050005 50014 =
2018-11-13 08:00 METAR CWRK 130800Z AUTO 11001KT 01/01 RMK AO1 2PAST HR SOG 04 7019 SLP204 P0001
                 T00050005 50007 =

Support USWX by starting your Amazon purchase here.